sensor_id;sensor_type;location;lat;lon;timestamp;temperature;humidity
81136;DHT22;70622;50.886;3.890;2023-12-04T00:01:11;3.40;81.70
81136;DHT22;70622;50.886;3.890;2023-12-04T00:03:36;3.40;81.80
81136;DHT22;70622;50.886;3.890;2023-12-04T00:06:02;3.40;81.90
81136;DHT22;70622;50.886;3.890;2023-12-04T00:08:27;3.40;81.60
81136;DHT22;70622;50.886;3.890;2023-12-04T00:10:53;3.30;81.40
81136;DHT22;70622;50.886;3.890;2023-12-04T00:13:19;3.40;81.60
81136;DHT22;70622;50.886;3.890;2023-12-04T00:15:45;3.40;81.10
81136;DHT22;70622;50.886;3.890;2023-12-04T00:18:10;3.40;81.00
81136;DHT22;70622;50.886;3.890;2023-12-04T00:20:36;3.40;81.00
81136;DHT22;70622;50.886;3.890;2023-12-04T00:23:02;3.40;81.00
81136;DHT22;70622;50.886;3.890;2023-12-04T00:25:27;3.40;81.00
81136;DHT22;70622;50.886;3.890;2023-12-04T00:27:53;3.50;80.40
81136;DHT22;70622;50.886;3.890;2023-12-04T00:30:18;3.50;80.00
81136;DHT22;70622;50.886;3.890;2023-12-04T00:32:44;3.40;80.40
81136;DHT22;70622;50.886;3.890;2023-12-04T00:35:09;3.50;80.30
81136;DHT22;70622;50.886;3.890;2023-12-04T00:37:35;3.50;79.90
81136;DHT22;70622;50.886;3.890;2023-12-04T00:40:04;3.40;80.30
81136;DHT22;70622;50.886;3.890;2023-12-04T00:42:29;3.40;80.40
81136;DHT22;70622;50.886;3.890;2023-12-04T00:44:55;3.40;80.90
81136;DHT22;70622;50.886;3.890;2023-12-04T00:47:20;3.40;80.20
81136;DHT22;70622;50.886;3.890;2023-12-04T00:49:46;3.40;80.20
81136;DHT22;70622;50.886;3.890;2023-12-04T00:52:12;3.40;79.70
81136;DHT22;70622;50.886;3.890;2023-12-04T00:54:40;3.50;79.80
81136;DHT22;70622;50.886;3.890;2023-12-04T00:57:06;3.50;79.60
81136;DHT22;70622;50.886;3.890;2023-12-04T00:59:31;3.50;79.50
81136;DHT22;70622;50.886;3.890;2023-12-04T01:01:57;3.50;79.70
81136;DHT22;70622;50.886;3.890;2023-12-04T01:04:23;3.50;79.20
81136;DHT22;70622;50.886;3.890;2023-12-04T01:06:48;3.50;79.50
81136;DHT22;70622;50.886;3.890;2023-12-04T01:09:14;3.50;79.60
81136;DHT22;70622;50.886;3.890;2023-12-04T01:11:39;3.50;79.00
81136;DHT22;70622;50.886;3.890;2023-12-04T01:14:05;3.60;78.30
81136;DHT22;70622;50.886;3.890;2023-12-04T01:16:30;3.60;78.40
81136;DHT22;70622;50.886;3.890;2023-12-04T01:18:56;3.60;78.60
81136;DHT22;70622;50.886;3.890;2023-12-04T01:21:22;3.60;78.50
81136;DHT22;70622;50.886;3.890;2023-12-04T01:23:47;3.60;78.00
81136;DHT22;70622;50.886;3.890;2023-12-04T01:26:13;3.60;78.20
81136;DHT22;70622;50.886;3.890;2023-12-04T01:28:38;3.60;78.20
81136;DHT22;70622;50.886;3.890;2023-12-04T01:31:04;3.60;78.20
81136;DHT22;70622;50.886;3.890;2023-12-04T01:33:30;3.70;77.70
81136;DHT22;70622;50.886;3.890;2023-12-04T01:35:55;3.70;77.90
81136;DHT22;70622;50.886;3.890;2023-12-04T01:38:21;3.70;78.00
81136;DHT22;70622;50.886;3.890;2023-12-04T01:40:46;3.70;77.70
81136;DHT22;70622;50.886;3.890;2023-12-04T01:43:12;3.70;77.90
81136;DHT22;70622;50.886;3.890;2023-12-04T01:45:38;3.70;78.00
81136;DHT22;70622;50.886;3.890;2023-12-04T01:48:03;3.70;78.10
81136;DHT22;70622;50.886;3.890;2023-12-04T01:50:29;3.70;78.60
81136;DHT22;70622;50.886;3.890;2023-12-04T01:52:55;3.70;78.60
81136;DHT22;70622;50.886;3.890;2023-12-04T01:55:21;3.70;78.30
81136;DHT22;70622;50.886;3.890;2023-12-04T01:57:47;3.70;77.90
81136;DHT22;70622;50.886;3.890;2023-12-04T02:00:13;3.80;77.40
81136;DHT22;70622;50.886;3.890;2023-12-04T02:02:39;3.80;77.80
81136;DHT22;70622;50.886;3.890;2023-12-04T02:05:07;3.70;77.70
81136;DHT22;70622;50.886;3.890;2023-12-04T02:07:33;3.50;77.50
81136;DHT22;70622;50.886;3.890;2023-12-04T02:09:59;3.60;77.90
81136;DHT22;70622;50.886;3.890;2023-12-04T02:12:24;3.70;78.00
81136;DHT22;70622;50.886;3.890;2023-12-04T02:14:50;3.70;77.60
81136;DHT22;70622;50.886;3.890;2023-12-04T02:17:16;3.70;77.40
81136;DHT22;70622;50.886;3.890;2023-12-04T02:19:42;3.70;77.20
81136;DHT22;70622;50.886;3.890;2023-12-04T02:22:07;3.70;77.30
81136;DHT22;70622;50.886;3.890;2023-12-04T02:24:33;3.70;77.40
81136;DHT22;70622;50.886;3.890;2023-12-04T02:27:03;3.70;77.40
81136;DHT22;70622;50.886;3.890;2023-12-04T02:29:31;3.60;77.50
81136;DHT22;70622;50.886;3.890;2023-12-04T02:31:58;3.60;77.20
81136;DHT22;70622;50.886;3.890;2023-12-04T02:34:23;3.60;77.50
81136;DHT22;70622;50.886;3.890;2023-12-04T02:36:50;3.60;76.80
81136;DHT22;70622;50.886;3.890;2023-12-04T02:39:16;3.50;77.70
81136;DHT22;70622;50.886;3.890;2023-12-04T02:41:42;3.60;77.30
81136;DHT22;70622;50.886;3.890;2023-12-04T02:44:07;3.60;76.90
81136;DHT22;70622;50.886;3.890;2023-12-04T02:46:33;3.70;76.70
81136;DHT22;70622;50.886;3.890;2023-12-04T02:48:58;3.70;76.00
81136;DHT22;70622;50.886;3.890;2023-12-04T02:51:24;3.70;75.80
81136;DHT22;70622;50.886;3.890;2023-12-04T02:53:51;3.70;75.40
81136;DHT22;70622;50.886;3.890;2023-12-04T02:56:17;3.70;76.00
81136;DHT22;70622;50.886;3.890;2023-12-04T02:58:42;3.70;76.30
81136;DHT22;70622;50.886;3.890;2023-12-04T03:01:08;3.70;76.10
81136;DHT22;70622;50.886;3.890;2023-12-04T03:03:33;3.70;76.10
81136;DHT22;70622;50.886;3.890;2023-12-04T03:05:59;3.70;76.00
81136;DHT22;70622;50.886;3.890;2023-12-04T03:08:24;3.70;76.20
81136;DHT22;70622;50.886;3.890;2023-12-04T03:10:50;3.80;75.20
81136;DHT22;70622;50.886;3.890;2023-12-04T03:13:15;3.80;75.60
81136;DHT22;70622;50.886;3.890;2023-12-04T03:15:41;3.80;75.40
81136;DHT22;70622;50.886;3.890;2023-12-04T03:18:06;3.80;75.10
81136;DHT22;70622;50.886;3.890;2023-12-04T03:20:32;3.80;74.40
81136;DHT22;70622;50.886;3.890;2023-12-04T03:22:58;3.80;74.80
81136;DHT22;70622;50.886;3.890;2023-12-04T03:25:23;3.90;74.50
81136;DHT22;70622;50.886;3.890;2023-12-04T03:27:49;3.90;74.50
81136;DHT22;70622;50.886;3.890;2023-12-04T03:30:14;3.90;73.70
81136;DHT22;70622;50.886;3.890;2023-12-04T03:32:40;3.90;74.20
81136;DHT22;70622;50.886;3.890;2023-12-04T03:35:06;3.90;73.50
81136;DHT22;70622;50.886;3.890;2023-12-04T03:37:31;3.90;74.60
81136;DHT22;70622;50.886;3.890;2023-12-04T03:39:57;3.80;73.70
81136;DHT22;70622;50.886;3.890;2023-12-04T03:42:22;3.90;73.70
81136;DHT22;70622;50.886;3.890;2023-12-04T03:44:48;3.90;74.00
81136;DHT22;70622;50.886;3.890;2023-12-04T03:47:13;3.80;74.00
81136;DHT22;70622;50.886;3.890;2023-12-04T03:49:39;3.80;74.30
81136;DHT22;70622;50.886;3.890;2023-12-04T03:52:05;3.80;74.50
81136;DHT22;70622;50.886;3.890;2023-12-04T03:54:30;3.80;74.50
81136;DHT22;70622;50.886;3.890;2023-12-04T03:56:56;3.90;74.20
81136;DHT22;70622;50.886;3.890;2023-12-04T03:59:21;4.00;73.90
81136;DHT22;70622;50.886;3.890;2023-12-04T04:01:47;4.00;73.90
81136;DHT22;70622;50.886;3.890;2023-12-04T04:04:12;4.00;73.70
81136;DHT22;70622;50.886;3.890;2023-12-04T04:06:38;4.00;74.80
81136;DHT22;70622;50.886;3.890;2023-12-04T04:09:04;4.00;73.80
81136;DHT22;70622;50.886;3.890;2023-12-04T04:11:30;4.00;74.00
81136;DHT22;70622;50.886;3.890;2023-12-04T04:13:55;4.10;73.90
81136;DHT22;70622;50.886;3.890;2023-12-04T04:16:21;4.10;73.60
81136;DHT22;70622;50.886;3.890;2023-12-04T04:18:46;4.10;73.60
81136;DHT22;70622;50.886;3.890;2023-12-04T04:21:12;4.20;73.80
81136;DHT22;70622;50.886;3.890;2023-12-04T04:23:37;4.30;73.30
81136;DHT22;70622;50.886;3.890;2023-12-04T04:26:03;4.30;73.20
81136;DHT22;70622;50.886;3.890;2023-12-04T04:28:29;4.40;73.00
81136;DHT22;70622;50.886;3.890;2023-12-04T04:30:54;4.40;72.90
81136;DHT22;70622;50.886;3.890;2023-12-04T04:33:20;4.40;72.70
81136;DHT22;70622;50.886;3.890;2023-12-04T04:35:45;4.30;72.20
81136;DHT22;70622;50.886;3.890;2023-12-04T04:38:11;4.30;72.30
81136;DHT22;70622;50.886;3.890;2023-12-04T04:40:36;4.30;72.70
81136;DHT22;70622;50.886;3.890;2023-12-04T04:43:03;4.30;72.30
81136;DHT22;70622;50.886;3.890;2023-12-04T04:45:28;4.40;72.30
81136;DHT22;70622;50.886;3.890;2023-12-04T04:47:54;4.30;72.00
81136;DHT22;70622;50.886;3.890;2023-12-04T04:50:19;4.40;71.40
81136;DHT22;70622;50.886;3.890;2023-12-04T04:52:45;4.40;70.80
81136;DHT22;70622;50.886;3.890;2023-12-04T04:55:10;4.40;71.60
81136;DHT22;70622;50.886;3.890;2023-12-04T04:57:36;4.40;70.80
81136;DHT22;70622;50.886;3.890;2023-12-04T05:00:01;4.40;70.90
81136;DHT22;70622;50.886;3.890;2023-12-04T05:02:27;4.40;70.00
81136;DHT22;70622;50.886;3.890;2023-12-04T05:04:53;4.40;70.50
81136;DHT22;70622;50.886;3.890;2023-12-04T05:07:18;4.50;70.80
81136;DHT22;70622;50.886;3.890;2023-12-04T05:09:44;4.40;70.50
81136;DHT22;70622;50.886;3.890;2023-12-04T05:12:09;4.50;70.20
81136;DHT22;70622;50.886;3.890;2023-12-04T05:14:35;4.50;70.00
81136;DHT22;70622;50.886;3.890;2023-12-04T05:17:00;4.50;69.50
81136;DHT22;70622;50.886;3.890;2023-12-04T05:19:26;4.70;69.10
81136;DHT22;70622;50.886;3.890;2023-12-04T05:21:51;4.70;69.40
81136;DHT22;70622;50.886;3.890;2023-12-04T05:24:17;4.60;69.30
81136;DHT22;70622;50.886;3.890;2023-12-04T05:26:43;4.50;70.00
81136;DHT22;70622;50.886;3.890;2023-12-04T05:29:08;4.50;70.60
81136;DHT22;70622;50.886;3.890;2023-12-04T05:31:34;4.40;69.60
81136;DHT22;70622;50.886;3.890;2023-12-04T05:34:19;4.50;70.00
81136;DHT22;70622;50.886;3.890;2023-12-04T05:36:45;4.50;69.40
81136;DHT22;70622;50.886;3.890;2023-12-04T05:39:10;4.50;69.20
81136;DHT22;70622;50.886;3.890;2023-12-04T05:41:36;4.60;69.00
81136;DHT22;70622;50.886;3.890;2023-12-04T05:44:02;4.60;68.30
81136;DHT22;70622;50.886;3.890;2023-12-04T05:46:30;4.60;68.30
81136;DHT22;70622;50.886;3.890;2023-12-04T05:48:57;4.50;68.90
81136;DHT22;70622;50.886;3.890;2023-12-04T05:51:23;4.60;68.70
81136;DHT22;70622;50.886;3.890;2023-12-04T05:53:48;4.70;69.30
81136;DHT22;70622;50.886;3.890;2023-12-04T05:56:14;4.60;68.70
81136;DHT22;70622;50.886;3.890;2023-12-04T05:58:40;4.60;68.80
81136;DHT22;70622;50.886;3.890;2023-12-04T06:01:05;4.50;68.50
81136;DHT22;70622;50.886;3.890;2023-12-04T06:03:32;4.60;69.50
81136;DHT22;70622;50.886;3.890;2023-12-04T06:05:57;4.60;69.40
81136;DHT22;70622;50.886;3.890;2023-12-04T06:08:23;4.60;68.70
81136;DHT22;70622;50.886;3.890;2023-12-04T06:10:48;4.60;69.20
81136;DHT22;70622;50.886;3.890;2023-12-04T06:13:14;4.50;69.60
81136;DHT22;70622;50.886;3.890;2023-12-04T06:15:58;4.60;69.50
81136;DHT22;70622;50.886;3.890;2023-12-04T06:18:42;4.70;69.30
81136;DHT22;70622;50.886;3.890;2023-12-04T06:21:25;4.70;68.70
81136;DHT22;70622;50.886;3.890;2023-12-04T06:24:12;4.70;69.10
81136;DHT22;70622;50.886;3.890;2023-12-04T06:27:05;4.80;69.20
81136;DHT22;70622;50.886;3.890;2023-12-04T06:32:15;4.70;68.40
81136;DHT22;70622;50.886;3.890;2023-12-04T06:34:53;4.70;68.50
81136;DHT22;70622;50.886;3.890;2023-12-04T06:37:54;4.70;68.30
81136;DHT22;70622;50.886;3.890;2023-12-04T06:41:00;4.70;68.50
81136;DHT22;70622;50.886;3.890;2023-12-04T06:49:00;4.60;68.90
81136;DHT22;70622;50.886;3.890;2023-12-04T06:51:49;4.60;68.40
81136;DHT22;70622;50.886;3.890;2023-12-04T06:54:18;4.60;68.80
81136;DHT22;70622;50.886;3.890;2023-12-04T06:57:36;4.60;69.90
81136;DHT22;70622;50.886;3.890;2023-12-04T07:00:33;4.70;68.90
81136;DHT22;70622;50.886;3.890;2023-12-04T07:08:32;4.60;68.80
81136;DHT22;70622;50.886;3.890;2023-12-04T07:11:30;4.60;69.80
81136;DHT22;70622;50.886;3.890;2023-12-04T07:13:59;4.40;71.00
81136;DHT22;70622;50.886;3.890;2023-12-04T07:17:16;4.40;70.40
81136;DHT22;70622;50.886;3.890;2023-12-04T07:20:20;4.60;70.40
81136;DHT22;70622;50.886;3.890;2023-12-04T07:28:22;4.60;70.90
81136;DHT22;70622;50.886;3.890;2023-12-04T07:30:49;4.60;71.40
81136;DHT22;70622;50.886;3.890;2023-12-04T07:33:15;4.80;71.60
81136;DHT22;70622;50.886;3.890;2023-12-04T07:35:40;4.80;72.10
81136;DHT22;70622;50.886;3.890;2023-12-04T07:38:06;4.80;72.40
81136;DHT22;70622;50.886;3.890;2023-12-04T07:40:31;4.70;72.40
81136;DHT22;70622;50.886;3.890;2023-12-04T07:42:57;4.70;73.10
81136;DHT22;70622;50.886;3.890;2023-12-04T07:45:23;4.80;73.20
81136;DHT22;70622;50.886;3.890;2023-12-04T07:47:54;4.80;74.10
81136;DHT22;70622;50.886;3.890;2023-12-04T07:50:20;4.90;74.50
81136;DHT22;70622;50.886;3.890;2023-12-04T07:52:48;4.90;73.00
81136;DHT22;70622;50.886;3.890;2023-12-04T07:55:16;4.90;73.20
81136;DHT22;70622;50.886;3.890;2023-12-04T07:57:45;4.90;73.50
81136;DHT22;70622;50.886;3.890;2023-12-04T08:00:18;4.80;74.20
81136;DHT22;70622;50.886;3.890;2023-12-04T08:02:48;4.80;74.40
81136;DHT22;70622;50.886;3.890;2023-12-04T08:05:19;4.80;76.10
81136;DHT22;70622;50.886;3.890;2023-12-04T08:08:04;4.80;74.80
81136;DHT22;70622;50.886;3.890;2023-12-04T08:10:41;4.90;75.40
81136;DHT22;70622;50.886;3.890;2023-12-04T08:13:39;4.80;75.10
81136;DHT22;70622;50.886;3.890;2023-12-04T08:16:22;4.90;76.10
81136;DHT22;70622;50.886;3.890;2023-12-04T08:19:06;4.90;75.50
81136;DHT22;70622;50.886;3.890;2023-12-04T08:24:16;5.00;76.60
81136;DHT22;70622;50.886;3.890;2023-12-04T08:26:44;5.00;76.00
81136;DHT22;70622;50.886;3.890;2023-12-04T08:29:14;5.00;76.70
81136;DHT22;70622;50.886;3.890;2023-12-04T08:31:39;5.20;76.40
81136;DHT22;70622;50.886;3.890;2023-12-04T08:34:06;5.00;76.30
81136;DHT22;70622;50.886;3.890;2023-12-04T08:36:33;5.00;76.90
81136;DHT22;70622;50.886;3.890;2023-12-04T08:38:59;4.90;77.40
81136;DHT22;70622;50.886;3.890;2023-12-04T08:41:25;5.00;77.50
81136;DHT22;70622;50.886;3.890;2023-12-04T08:43:54;4.90;77.70
81136;DHT22;70622;50.886;3.890;2023-12-04T08:46:26;5.10;78.20
81136;DHT22;70622;50.886;3.890;2023-12-04T08:48:56;5.10;76.80
81136;DHT22;70622;50.886;3.890;2023-12-04T08:51:22;5.20;77.90
81136;DHT22;70622;50.886;3.890;2023-12-04T08:53:49;5.20;77.40
81136;DHT22;70622;50.886;3.890;2023-12-04T08:56:18;5.20;77.80
81136;DHT22;70622;50.886;3.890;2023-12-04T08:58:44;5.20;78.70
81136;DHT22;70622;50.886;3.890;2023-12-04T09:01:09;5.30;78.20
81136;DHT22;70622;50.886;3.890;2023-12-04T09:03:36;5.30;78.80
81136;DHT22;70622;50.886;3.890;2023-12-04T09:06:01;5.30;78.80
81136;DHT22;70622;50.886;3.890;2023-12-04T09:08:27;5.40;78.70
81136;DHT22;70622;50.886;3.890;2023-12-04T09:10:54;5.30;77.90
81136;DHT22;70622;50.886;3.890;2023-12-04T09:13:22;5.40;78.70
81136;DHT22;70622;50.886;3.890;2023-12-04T09:15:49;5.30;78.70
81136;DHT22;70622;50.886;3.890;2023-12-04T09:18:14;5.30;78.80
81136;DHT22;70622;50.886;3.890;2023-12-04T09:20:41;5.30;80.10
81136;DHT22;70622;50.886;3.890;2023-12-04T09:23:06;5.30;79.90
81136;DHT22;70622;50.886;3.890;2023-12-04T09:25:32;5.40;81.10
81136;DHT22;70622;50.886;3.890;2023-12-04T09:27:57;5.40;81.00
81136;DHT22;70622;50.886;3.890;2023-12-04T09:30:26;5.30;80.80
81136;DHT22;70622;50.886;3.890;2023-12-04T09:32:54;5.30;82.00
81136;DHT22;70622;50.886;3.890;2023-12-04T09:35:22;5.20;82.10
81136;DHT22;70622;50.886;3.890;2023-12-04T09:37:49;5.10;82.70
81136;DHT22;70622;50.886;3.890;2023-12-04T09:40:17;5.10;83.10
81136;DHT22;70622;50.886;3.890;2023-12-04T09:42:43;5.10;84.00
81136;DHT22;70622;50.886;3.890;2023-12-04T09:45:13;5.10;84.40
81136;DHT22;70622;50.886;3.890;2023-12-04T09:47:43;5.10;85.40
81136;DHT22;70622;50.886;3.890;2023-12-04T09:50:10;5.00;85.70
81136;DHT22;70622;50.886;3.890;2023-12-04T09:52:37;5.00;86.60
81136;DHT22;70622;50.886;3.890;2023-12-04T09:55:03;5.00;87.10
81136;DHT22;70622;50.886;3.890;2023-12-04T09:57:30;5.10;87.30
81136;DHT22;70622;50.886;3.890;2023-12-04T09:59:56;5.10;87.90
81136;DHT22;70622;50.886;3.890;2023-12-04T10:02:24;5.10;88.50
81136;DHT22;70622;50.886;3.890;2023-12-04T10:04:49;5.20;88.90
81136;DHT22;70622;50.886;3.890;2023-12-04T10:07:15;5.30;89.10
81136;DHT22;70622;50.886;3.890;2023-12-04T10:09:41;5.40;88.60
81136;DHT22;70622;50.886;3.890;2023-12-04T10:12:09;5.40;87.90
81136;DHT22;70622;50.886;3.890;2023-12-04T10:14:39;5.40;88.30
81136;DHT22;70622;50.886;3.890;2023-12-04T10:17:16;5.40;88.80
81136;DHT22;70622;50.886;3.890;2023-12-04T10:19:43;5.40;89.00
81136;DHT22;70622;50.886;3.890;2023-12-04T10:22:13;5.40;89.10
81136;DHT22;70622;50.886;3.890;2023-12-04T10:24:42;5.50;88.80
81136;DHT22;70622;50.886;3.890;2023-12-04T10:27:11;5.50;88.80
81136;DHT22;70622;50.886;3.890;2023-12-04T10:32:59;5.70;87.50
81136;DHT22;70622;50.886;3.890;2023-12-04T10:35:48;5.80;88.10
81136;DHT22;70622;50.886;3.890;2023-12-04T10:46:25;5.20;90.50
81136;DHT22;70622;50.886;3.890;2023-12-04T10:49:03;5.20;90.60
81136;DHT22;70622;50.886;3.890;2023-12-04T10:51:48;5.10;90.80
81136;DHT22;70622;50.886;3.890;2023-12-04T10:54:33;5.00;91.40
81136;DHT22;70622;50.886;3.890;2023-12-04T11:00:22;5.00;91.20
81136;DHT22;70622;50.886;3.890;2023-12-04T11:14:37;5.40;90.70
81136;DHT22;70622;50.886;3.890;2023-12-04T11:17:08;5.50;90.50
81136;DHT22;70622;50.886;3.890;2023-12-04T11:19:43;5.60;90.50
81136;DHT22;70622;50.886;3.890;2023-12-04T11:22:11;5.60;90.20
81136;DHT22;70622;50.886;3.890;2023-12-04T11:24:37;5.60;90.30
81136;DHT22;70622;50.886;3.890;2023-12-04T11:27:05;5.70;90.00
81136;DHT22;70622;50.886;3.890;2023-12-04T11:29:31;5.70;90.20
81136;DHT22;70622;50.886;3.890;2023-12-04T11:32:00;5.60;90.40
81136;DHT22;70622;50.886;3.890;2023-12-04T11:34:35;5.60;90.40
81136;DHT22;70622;50.886;3.890;2023-12-04T11:37:00;5.40;90.60
81136;DHT22;70622;50.886;3.890;2023-12-04T11:39:28;5.50;90.70
81136;DHT22;70622;50.886;3.890;2023-12-04T11:41:53;5.50;90.80
81136;DHT22;70622;50.886;3.890;2023-12-04T11:44:19;5.50;91.00
81136;DHT22;70622;50.886;3.890;2023-12-04T11:46:55;5.70;90.70
81136;DHT22;70622;50.886;3.890;2023-12-04T11:49:30;5.70;90.30
81136;DHT22;70622;50.886;3.890;2023-12-04T11:52:05;5.60;90.70
81136;DHT22;70622;50.886;3.890;2023-12-04T11:54:56;5.60;90.80
81136;DHT22;70622;50.886;3.890;2023-12-04T12:00:09;5.60;90.60
81136;DHT22;70622;50.886;3.890;2023-12-04T12:05:36;5.70;90.70
81136;DHT22;70622;50.886;3.890;2023-12-04T12:08:04;5.80;90.60
81136;DHT22;70622;50.886;3.890;2023-12-04T12:10:30;5.90;90.50
81136;DHT22;70622;50.886;3.890;2023-12-04T12:12:56;6.10;90.40
81136;DHT22;70622;50.886;3.890;2023-12-04T12:15:22;5.90;90.80
81136;DHT22;70622;50.886;3.890;2023-12-04T12:17:48;6.00;91.10
81136;DHT22;70622;50.886;3.890;2023-12-04T12:20:14;6.00;90.70
81136;DHT22;70622;50.886;3.890;2023-12-04T12:22:40;6.10;90.70
81136;DHT22;70622;50.886;3.890;2023-12-04T12:25:07;6.10;90.60
81136;DHT22;70622;50.886;3.890;2023-12-04T12:27:33;6.20;90.70
81136;DHT22;70622;50.886;3.890;2023-12-04T12:29:58;6.40;90.10
81136;DHT22;70622;50.886;3.890;2023-12-04T12:32:24;6.40;90.30
81136;DHT22;70622;50.886;3.890;2023-12-04T12:34:51;6.50;89.90
81136;DHT22;70622;50.886;3.890;2023-12-04T12:37:17;6.30;90.20
81136;DHT22;70622;50.886;3.890;2023-12-04T12:39:42;6.30;90.40
81136;DHT22;70622;50.886;3.890;2023-12-04T12:42:08;6.40;90.50
81136;DHT22;70622;50.886;3.890;2023-12-04T12:44:38;6.30;90.90
81136;DHT22;70622;50.886;3.890;2023-12-04T12:47:05;6.30;91.00
81136;DHT22;70622;50.886;3.890;2023-12-04T12:49:32;6.40;90.50
81136;DHT22;70622;50.886;3.890;2023-12-04T12:52:02;6.30;90.60
81136;DHT22;70622;50.886;3.890;2023-12-04T12:54:28;6.30;90.70
81136;DHT22;70622;50.886;3.890;2023-12-04T12:56:58;6.50;90.80
81136;DHT22;70622;50.886;3.890;2023-12-04T12:59:30;6.40;91.00
81136;DHT22;70622;50.886;3.890;2023-12-04T13:01:56;6.30;91.00
81136;DHT22;70622;50.886;3.890;2023-12-04T13:04:38;6.30;91.40
81136;DHT22;70622;50.886;3.890;2023-12-04T13:07:05;6.30;91.40
81136;DHT22;70622;50.886;3.890;2023-12-04T13:09:34;6.30;91.50
81136;DHT22;70622;50.886;3.890;2023-12-04T13:12:04;6.30;91.70
81136;DHT22;70622;50.886;3.890;2023-12-04T13:14:30;6.30;91.70
81136;DHT22;70622;50.886;3.890;2023-12-04T13:16:56;6.20;91.80
81136;DHT22;70622;50.886;3.890;2023-12-04T13:19:22;6.30;92.00
81136;DHT22;70622;50.886;3.890;2023-12-04T13:21:51;6.40;91.90
81136;DHT22;70622;50.886;3.890;2023-12-04T13:24:17;6.40;92.00
81136;DHT22;70622;50.886;3.890;2023-12-04T13:26:43;6.30;92.00
81136;DHT22;70622;50.886;3.890;2023-12-04T13:29:09;6.30;92.00
81136;DHT22;70622;50.886;3.890;2023-12-04T13:31:44;6.30;92.10
81136;DHT22;70622;50.886;3.890;2023-12-04T13:34:18;6.30;92.30
81136;DHT22;70622;50.886;3.890;2023-12-04T13:36:43;6.20;92.40
81136;DHT22;70622;50.886;3.890;2023-12-04T13:39:09;6.20;92.40
81136;DHT22;70622;50.886;3.890;2023-12-04T13:41:43;6.20;92.40
81136;DHT22;70622;50.886;3.890;2023-12-04T13:44:29;6.30;92.40
81136;DHT22;70622;50.886;3.890;2023-12-04T13:46:55;6.40;92.10
81136;DHT22;70622;50.886;3.890;2023-12-04T13:49:20;6.50;91.90
81136;DHT22;70622;50.886;3.890;2023-12-04T13:51:46;6.60;91.80
81136;DHT22;70622;50.886;3.890;2023-12-04T13:54:17;6.70;91.50
81136;DHT22;70622;50.886;3.890;2023-12-04T13:56:52;6.70;91.50
81136;DHT22;70622;50.886;3.890;2023-12-04T13:59:19;6.70;91.60
81136;DHT22;70622;50.886;3.890;2023-12-04T14:01:45;6.70;91.50
81136;DHT22;70622;50.886;3.890;2023-12-04T14:04:11;6.60;91.50
81136;DHT22;70622;50.886;3.890;2023-12-04T14:06:36;6.70;91.60
81136;DHT22;70622;50.886;3.890;2023-12-04T14:09:02;6.60;91.60
81136;DHT22;70622;50.886;3.890;2023-12-04T14:11:31;6.70;91.60
81136;DHT22;70622;50.886;3.890;2023-12-04T14:13:56;6.60;91.90
81136;DHT22;70622;50.886;3.890;2023-12-04T14:16:22;6.60;92.00
81136;DHT22;70622;50.886;3.890;2023-12-04T14:18:47;6.50;92.00
81136;DHT22;70622;50.886;3.890;2023-12-04T14:21:13;6.50;92.20
81136;DHT22;70622;50.886;3.890;2023-12-04T14:23:38;6.50;92.40
81136;DHT22;70622;50.886;3.890;2023-12-04T14:26:04;6.50;92.60
81136;DHT22;70622;50.886;3.890;2023-12-04T14:28:29;6.40;92.90
81136;DHT22;70622;50.886;3.890;2023-12-04T14:30:55;6.50;92.90
81136;DHT22;70622;50.886;3.890;2023-12-04T14:33:21;6.50;93.00
81136;DHT22;70622;50.886;3.890;2023-12-04T14:35:46;6.30;93.30
81136;DHT22;70622;50.886;3.890;2023-12-04T14:38:12;6.40;93.50
81136;DHT22;70622;50.886;3.890;2023-12-04T14:40:38;6.50;93.50
81136;DHT22;70622;50.886;3.890;2023-12-04T14:43:09;6.50;93.40
81136;DHT22;70622;50.886;3.890;2023-12-04T14:45:37;6.60;93.20
81136;DHT22;70622;50.886;3.890;2023-12-04T14:48:06;6.70;93.00
81136;DHT22;70622;50.886;3.890;2023-12-04T14:50:41;6.70;93.00
81136;DHT22;70622;50.886;3.890;2023-12-04T14:53:06;6.60;93.00
81136;DHT22;70622;50.886;3.890;2023-12-04T14:56:05;6.50;93.40
81136;DHT22;70622;50.886;3.890;2023-12-04T14:59:31;6.50;93.40
81136;DHT22;70622;50.886;3.890;2023-12-04T15:02:52;6.60;93.30
81136;DHT22;70622;50.886;3.890;2023-12-04T15:05:49;6.50;93.70
81136;DHT22;70622;50.886;3.890;2023-12-04T15:09:22;6.50;94.00
81136;DHT22;70622;50.886;3.890;2023-12-04T15:12:21;6.40;94.50
81136;DHT22;70622;50.886;3.890;2023-12-04T15:15:06;6.50;94.80
81136;DHT22;70622;50.886;3.890;2023-12-04T15:17:51;6.40;94.70
81136;DHT22;70622;50.886;3.890;2023-12-04T15:20:39;6.40;95.10
81136;DHT22;70622;50.886;3.890;2023-12-04T15:23:06;6.30;95.40
81136;DHT22;70622;50.886;3.890;2023-12-04T15:25:31;6.40;95.60
81136;DHT22;70622;50.886;3.890;2023-12-04T15:27:58;6.50;95.60
81136;DHT22;70622;50.886;3.890;2023-12-04T15:30:23;6.30;95.90
81136;DHT22;70622;50.886;3.890;2023-12-04T15:32:49;6.30;96.00
81136;DHT22;70622;50.886;3.890;2023-12-04T15:35:15;6.30;96.30
81136;DHT22;70622;50.886;3.890;2023-12-04T15:38:12;6.20;96.30
81136;DHT22;70622;50.886;3.890;2023-12-04T15:40:37;6.20;96.30
81136;DHT22;70622;50.886;3.890;2023-12-04T15:43:04;6.20;96.30
81136;DHT22;70622;50.886;3.890;2023-12-04T15:45:29;6.10;96.60
81136;DHT22;70622;50.886;3.890;2023-12-04T15:47:55;6.00;96.90
81136;DHT22;70622;50.886;3.890;2023-12-04T15:50:21;6.00;97.10
81136;DHT22;70622;50.886;3.890;2023-12-04T15:52:48;6.10;97.10
81136;DHT22;70622;50.886;3.890;2023-12-04T15:55:13;6.20;96.90
81136;DHT22;70622;50.886;3.890;2023-12-04T15:57:39;6.10;96.90
81136;DHT22;70622;50.886;3.890;2023-12-04T16:00:05;6.00;96.80
81136;DHT22;70622;50.886;3.890;2023-12-04T16:02:41;6.10;96.80
81136;DHT22;70622;50.886;3.890;2023-12-04T16:05:07;6.20;96.70
81136;DHT22;70622;50.886;3.890;2023-12-04T16:07:39;6.20;96.60
81136;DHT22;70622;50.886;3.890;2023-12-04T16:10:05;6.20;96.70
81136;DHT22;70622;50.886;3.890;2023-12-04T16:12:32;6.10;96.70
81136;DHT22;70622;50.886;3.890;2023-12-04T16:14:57;6.00;96.90
81136;DHT22;70622;50.886;3.890;2023-12-04T16:17:23;6.00;97.30
81136;DHT22;70622;50.886;3.890;2023-12-04T16:19:49;6.00;97.20
81136;DHT22;70622;50.886;3.890;2023-12-04T16:22:14;6.00;97.30
81136;DHT22;70622;50.886;3.890;2023-12-04T16:24:41;6.00;97.10
81136;DHT22;70622;50.886;3.890;2023-12-04T16:27:06;6.10;97.20
81136;DHT22;70622;50.886;3.890;2023-12-04T16:29:32;6.10;97.10
81136;DHT22;70622;50.886;3.890;2023-12-04T16:31:59;6.10;97.10
81136;DHT22;70622;50.886;3.890;2023-12-04T16:34:25;6.10;97.20
81136;DHT22;70622;50.886;3.890;2023-12-04T16:36:50;6.10;97.10
81136;DHT22;70622;50.886;3.890;2023-12-04T16:39:16;6.20;97.10
81136;DHT22;70622;50.886;3.890;2023-12-04T16:41:42;6.20;97.00
81136;DHT22;70622;50.886;3.890;2023-12-04T16:44:07;6.10;97.10
81136;DHT22;70622;50.886;3.890;2023-12-04T16:46:33;6.20;97.20
81136;DHT22;70622;50.886;3.890;2023-12-04T16:48:58;6.20;97.20
81136;DHT22;70622;50.886;3.890;2023-12-04T16:51:24;6.20;97.20